Time;durP1;ratioP1;P1;durP2;ratioP2;P2;SDS_P1;SDS_P2;PMS_P1;PMS_P2;Temp;Humidity;BMP_temperature;BMP_pressure;BME280_temperature;BME280_humidity;BME280_pressure;Samples;Min_cycle;Max_cycle;Signal;HPM_P1;HPM_P2
2023/06/05 00:01:28;;;;;;;2.47;2.27;;;24.60;45.00;;;;;;5079328;28;20476;-48
2023/06/05 00:03:57;;;;;;;2.13;1.93;;;24.60;45.00;;;;;;5069854;28;20792;-48
2023/06/05 00:06:26;;;;;;;2.50;2.27;;;24.60;45.00;;;;;;5072417;28;20446;-46
2023/06/05 00:08:56;;;;;;;1.90;1.70;;;24.60;45.00;;;;;;5083458;28;20454;-46
2023/06/05 00:11:25;;;;;;;3.27;2.43;;;24.60;45.10;;;;;;5065894;28;20446;-48
2023/06/05 00:13:54;;;;;;;2.63;1.80;;;24.60;45.10;;;;;;5087342;28;20993;-47
2023/06/05 00:16:23;;;;;;;2.90;1.87;;;24.60;45.20;;;;;;5070934;28;20900;-48
2023/06/05 00:18:51;;;;;;;2.27;2.07;;;24.60;45.40;;;;;;5082873;28;20916;-45
2023/06/05 00:21:20;;;;;;;2.23;2.03;;;24.60;45.10;;;;;;5089389;28;20470;-47
2023/06/05 00:23:48;;;;;;;2.30;2.10;;;24.60;45.10;;;;;;5089111;28;21034;-47
2023/06/05 00:26:18;;;;;;;3.20;2.20;;;24.60;45.20;;;;;;5065271;28;20451;-47
2023/06/05 00:28:48;;;;;;;2.80;1.87;;;24.60;45.10;;;;;;5082466;28;20468;-47
2023/06/05 00:31:18;;;;;;;1.70;1.60;;;24.60;45.20;;;;;;5087237;28;20437;-47
2023/06/05 00:33:47;;;;;;;1.70;1.60;;;24.60;45.20;;;;;;5099080;28;21011;-46
2023/06/05 00:36:17;;;;;;;2.97;2.27;;;24.60;45.20;;;;;;5057577;28;20485;-47
2023/06/05 00:38:46;;;;;;;1.87;1.77;;;24.60;45.20;;;;;;5087269;28;20462;-48
2023/06/05 00:41:15;;;;;;;2.00;1.53;;;24.60;45.20;;;;;;5076721;28;20433;-47
2023/06/05 00:43:45;;;;;;;2.30;1.87;;;24.60;45.20;;;;;;5083627;28;20450;-47
2023/06/05 00:46:14;;;;;;;1.80;1.70;;;24.60;45.20;;;;;;5062120;28;20438;-47
2023/06/05 00:48:46;;;;;;;2.00;1.80;;;24.60;45.30;;;;;;5091441;28;20463;-48
2023/06/05 00:51:15;;;;;;;2.30;2.10;;;24.60;45.20;;;;;;5095688;28;20507;-49
2023/06/05 00:53:48;;;;;;;2.53;2.03;;;24.60;45.20;;;;;;5086776;28;20470;-47
2023/06/05 00:56:17;;;;;;;2.27;2.10;;;24.50;45.10;;;;;;5062497;28;20849;-47
2023/06/05 00:58:46;;;;;;;2.17;1.97;;;24.60;45.10;;;;;;5082594;28;20450;-48
2023/06/05 01:01:16;;;;;;;1.83;1.73;;;24.50;45.10;;;;;;5083133;28;20473;-48
2023/06/05 01:03:47;;;;;;;1.77;1.67;;;24.50;45.10;;;;;;5088535;28;20533;-47
2023/06/05 01:06:16;;;;;;;2.00;1.80;;;24.50;45.20;;;;;;5076596;28;20513;-46
2023/06/05 01:08:48;;;;;;;3.30;1.53;;;24.50;45.20;;;;;;5086054;28;20459;-48
2023/06/05 01:11:23;;;;;;;2.40;2.20;;;24.50;45.20;;;;;;5076932;28;20905;-46
2023/06/05 01:14:02;;;;;;;2.43;1.80;;;24.50;45.20;;;;;;5086559;28;20445;-47
2023/06/05 01:16:32;;;;;;;2.40;1.87;;;24.50;45.30;;;;;;5082125;28;20906;-48
2023/06/05 01:19:02;;;;;;;2.27;1.90;;;24.50;45.30;;;;;;5085036;28;20478;-48
2023/06/05 01:21:32;;;;;;;3.00;1.97;;;24.50;45.30;;;;;;5088638;28;21018;-45
2023/06/05 01:24:02;;;;;;;2.50;2.30;;;24.50;45.40;;;;;;5066167;28;20470;-47
2023/06/05 01:26:37;;;;;;;2.03;1.90;;;24.50;45.40;;;;;;5082806;28;20474;-46
2023/06/05 01:29:11;;;;;;;2.33;1.80;;;24.50;45.30;;;;;;5085299;28;20882;-47
2023/06/05 01:31:43;;;;;;;2.67;2.10;;;24.50;45.40;;;;;;5073378;28;21052;-46
2023/06/05 01:34:19;;;;;;;2.20;2.00;;;24.50;46.40;;;;;;5077357;28;20476;-47
2023/06/05 01:36:49;;;;;;;2.20;2.00;;;24.50;45.30;;;;;;5062164;28;20456;-46
2023/06/05 01:39:22;;;;;;;1.90;1.80;;;24.50;45.40;;;;;;5082657;28;21017;-47
2023/06/05 01:41:52;;;;;;;2.43;1.90;;;24.50;45.30;;;;;;5071718;28;21202;-48
2023/06/05 01:44:21;;;;;;;2.87;2.03;;;24.50;45.40;;;;;;5063105;28;20865;-48
2023/06/05 01:46:50;;;;;;;2.13;1.93;;;24.50;45.30;;;;;;5055262;28;20468;-48
2023/06/05 01:49:21;;;;;;;2.30;2.10;;;24.50;46.60;;;;;;5069895;28;20467;-47
2023/06/05 01:51:50;;;;;;;2.20;2.00;;;24.50;45.40;;;;;;5085375;28;20432;-47
2023/06/05 01:54:23;;;;;;;2.03;1.83;;;24.50;45.50;;;;;;5084024;28;20532;-47
2023/06/05 01:56:52;;;;;;;1.60;1.50;;;24.50;45.50;;;;;;5070356;28;20446;-47
2023/06/05 01:59:21;;;;;;;2.37;1.60;;;24.40;45.40;;;;;;5070781;28;20466;-47
2023/06/05 02:01:50;;;;;;;1.53;1.43;;;24.40;45.40;;;;;;5070030;28;20508;-47
2023/06/05 02:04:19;;;;;;;2.30;1.87;;;24.50;45.50;;;;;;5075407;28;20834;-47
2023/06/05 02:06:48;;;;;;;2.57;2.00;;;24.40;45.50;;;;;;5065297;28;20453;-48
2023/06/05 02:09:22;;;;;;;2.00;1.80;;;24.40;45.50;;;;;;5059590;28;20477;-47
2023/06/05 02:11:53;;;;;;;3.60;2.10;;;24.40;45.50;;;;;;5076817;28;20442;-48
2023/06/05 02:14:22;;;;;;;2.00;1.90;;;24.40;45.60;;;;;;5072855;28;20495;-48
2023/06/05 02:16:51;;;;;;;2.10;1.90;;;24.40;45.40;;;;;;5062917;28;20966;-48
2023/06/05 02:19:20;;;;;;;2.20;1.83;;;24.40;45.60;;;;;;5076229;28;20469;-47
2023/06/05 02:21:48;;;;;;;2.03;1.83;;;24.40;45.60;;;;;;5074268;28;20854;-45
2023/06/05 02:24:18;;;;;;;1.60;1.40;;;24.40;45.60;;;;;;5063563;28;21018;-47
2023/06/05 02:26:48;;;;;;;2.33;2.13;;;24.40;45.60;;;;;;5077950;28;20882;-45
2023/06/05 02:29:17;;;;;;;2.20;2.00;;;24.40;45.70;;;;;;5079957;28;21024;-47
2023/06/05 02:31:47;;;;;;;3.03;2.27;;;24.30;45.50;;;;;;5065089;28;20479;-48
2023/06/05 02:34:16;;;;;;;2.80;1.83;;;24.40;45.60;;;;;;5068247;28;20736;-46
2023/06/05 02:36:45;;;;;;;2.63;2.03;;;24.30;45.60;;;;;;5083845;28;20444;-47
2023/06/05 02:39:14;;;;;;;3.70;1.80;;;24.30;45.50;;;;;;5061185;28;21070;-47
2023/06/05 02:41:45;;;;;;;2.33;1.80;;;24.30;45.60;;;;;;5087707;28;20929;-47
2023/06/05 02:44:15;;;;;;;2.20;2.00;;;24.30;45.60;;;;;;5084057;28;20475;-47
2023/06/05 02:46:44;;;;;;;1.80;1.70;;;24.30;45.60;;;;;;5076491;28;20476;-45
2023/06/05 02:49:13;;;;;;;1.90;1.60;;;24.30;45.70;;;;;;5073422;28;20492;-46
2023/06/05 02:51:42;;;;;;;1.57;1.47;;;24.30;45.80;;;;;;5084356;28;20474;-47
2023/06/05 02:54:11;;;;;;;2.27;1.97;;;24.30;45.70;;;;;;5068389;28;20469;-47
2023/06/05 02:56:43;;;;;;;2.07;1.90;;;24.30;45.70;;;;;;5068947;28;20725;-48
2023/06/05 02:59:15;;;;;;;2.07;1.87;;;24.30;45.80;;;;;;5078467;28;20563;-47
2023/06/05 03:01:47;;;;;;;4.83;1.80;;;24.30;45.80;;;;;;5082524;28;20474;-46
2023/06/05 03:04:21;;;;;;;3.17;2.20;;;24.30;45.70;;;;;;5079617;28;20488;-47
2023/06/05 03:06:56;;;;;;;2.13;1.87;;;24.30;45.80;;;;;;5077506;28;20525;-47
2023/06/05 03:09:26;;;;;;;1.63;1.53;;;24.30;45.80;;;;;;5084697;28;20484;-46
2023/06/05 03:11:55;;;;;;;2.67;1.73;;;24.30;45.80;;;;;;5087444;28;20953;-48
2023/06/05 03:14:27;;;;;;;1.87;1.77;;;24.30;45.90;;;;;;5086693;28;21030;-48
2023/06/05 03:16:58;;;;;;;2.60;1.87;;;24.30;45.90;;;;;;5085461;28;20502;-47
2023/06/05 03:19:27;;;;;;;2.63;1.83;;;24.20;45.90;;;;;;5080273;28;20499;-47
2023/06/05 03:21:59;;;;;;;3.27;2.00;;;24.30;46.00;;;;;;5084339;28;20533;-48
2023/06/05 03:24:29;;;;;;;3.10;2.10;;;24.20;46.00;;;;;;5078197;28;21036;-47
2023/06/05 03:27:05;;;;;;;1.90;1.50;;;24.20;45.80;;;;;;5063876;28;20452;-47
2023/06/05 03:29:36;;;;;;;2.23;1.90;;;24.20;45.90;;;;;;5070430;28;21009;-46
2023/06/05 03:32:07;;;;;;;2.90;1.87;;;24.20;46.00;;;;;;5066162;28;20501;-47
2023/06/05 03:34:36;;;;;;;2.93;2.00;;;24.20;46.00;;;;;;5084094;28;20520;-47
2023/06/05 03:37:06;;;;;;;1.80;1.70;;;24.20;45.90;;;;;;5088054;28;20541;-45
2023/06/05 03:39:34;;;;;;;1.93;1.70;;;24.20;46.00;;;;;;5085188;28;20909;-45
2023/06/05 03:42:06;;;;;;;2.97;1.73;;;24.20;46.00;;;;;;5084372;28;20470;-48
2023/06/05 03:44:37;;;;;;;5.00;1.70;;;24.10;46.00;;;;;;5080580;28;21004;-47
2023/06/05 03:47:07;;;;;;;2.40;1.90;;;24.10;46.10;;;;;;5084386;28;20475;-49
2023/06/05 03:49:42;;;;;;;3.93;1.93;;;24.20;46.20;;;;;;5075552;28;20477;-47
2023/06/05 03:52:11;;;;;;;2.47;1.90;;;24.20;46.10;;;;;;5084826;28;20581;-47
2023/06/05 03:54:40;;;;;;;2.20;2.00;;;24.10;46.00;;;;;;5063940;28;20603;-47
2023/06/05 03:57:12;;;;;;;2.33;2.00;;;24.10;46.10;;;;;;5081869;28;20437;-46
2023/06/05 03:59:43;;;;;;;2.30;2.10;;;24.10;46.20;;;;;;5064815;28;20524;-45
2023/06/05 04:02:12;;;;;;;2.40;1.90;;;24.10;46.20;;;;;;5065279;28;20484;-48
2023/06/05 04:04:41;;;;;;;2.63;1.60;;;24.10;46.20;;;;;;5083815;28;20450;-46
2023/06/05 04:07:09;;;;;;;2.20;2.03;;;24.10;46.20;;;;;;5082352;28;20439;-46
2023/06/05 04:09:38;;;;;;;1.80;1.57;;;24.10;46.30;;;;;;5088531;28;21077;-46
2023/06/05 04:12:07;;;;;;;2.23;2.03;;;24.10;46.20;;;;;;5090804;28;20463;-47
2023/06/05 04:14:38;;;;;;;3.30;2.20;;;24.10;46.40;;;;;;5084335;28;20547;-48
2023/06/05 04:17:10;;;;;;;2.00;1.80;;;24.10;46.40;;;;;;5080799;28;21005;-48
2023/06/05 04:19:39;;;;;;;2.63;2.00;;;24.10;46.40;;;;;;5054112;28;20479;-47
2023/06/05 04:22:08;;;;;;;2.63;1.77;;;24.10;46.40;;;;;;5086392;28;20463;-47
2023/06/05 04:24:39;;;;;;;2.60;2.00;;;24.00;46.30;;;;;;5075432;28;20462;-47
2023/06/05 04:27:08;;;;;;;2.43;2.00;;;24.00;46.30;;;;;;5081312;28;20502;-46
2023/06/05 04:29:37;;;;;;;2.73;2.00;;;24.00;46.40;;;;;;5080747;28;20811;-45
2023/06/05 04:32:07;;;;;;;1.60;1.47;;;24.00;46.30;;;;;;5085369;28;20443;-45
2023/06/05 04:34:37;;;;;;;2.90;2.10;;;24.00;46.40;;;;;;5077453;28;20495;-46
2023/06/05 04:37:06;;;;;;;2.60;1.83;;;24.00;46.40;;;;;;5072056;28;20435;-47
2023/06/05 04:39:34;;;;;;;2.40;2.20;;;24.00;46.40;;;;;;5064400;28;20520;-48
2023/06/05 04:42:03;;;;;;;1.80;1.70;;;24.00;46.40;;;;;;5088170;28;21014;-46
2023/06/05 04:44:56;;;;;;;2.50;2.23;;;24.00;46.40;;;;;;5066638;28;20516;-47
2023/06/05 04:47:26;;;;;;;3.53;2.30;;;24.00;46.60;;;;;;5066728;28;20452;-47
2023/06/05 04:49:59;;;;;;;1.70;1.47;;;24.00;46.70;;;;;;5089009;28;20478;-47
2023/06/05 04:52:29;;;;;;;2.23;1.87;;;23.90;46.40;;;;;;5078425;28;20445;-48
2023/06/05 04:55:01;;;;;;;2.00;1.83;;;24.00;46.70;;;;;;5082552;28;20487;-47
2023/06/05 04:57:31;;;;;;;2.00;1.80;;;24.00;46.60;;;;;;5078062;28;20438;-45
2023/06/05 05:00:07;;;;;;;2.37;1.80;;;23.90;46.60;;;;;;5086983;28;20455;-47
2023/06/05 05:02:37;;;;;;;2.03;1.67;;;23.90;46.50;;;;;;5062724;28;20466;-45
2023/06/05 05:05:13;;;;;;;3.13;1.73;;;23.90;46.60;;;;;;5086393;28;20826;-46
2023/06/05 05:07:44;;;;;;;2.17;1.97;;;23.90;46.70;;;;;;5079890;28;20473;-46
2023/06/05 05:10:16;;;;;;;2.10;1.90;;;23.90;47.80;;;;;;5070556;28;20475;-47
2023/06/05 05:12:45;;;;;;;2.27;1.90;;;23.90;46.70;;;;;;5084439;28;20432;-46
2023/06/05 05:15:15;;;;;;;2.43;1.90;;;23.90;46.70;;;;;;5088831;28;20477;-47
2023/06/05 05:17:44;;;;;;;2.47;1.87;;;23.90;46.70;;;;;;5073372;28;20475;-48
2023/06/05 05:20:15;;;;;;;2.37;1.63;;;23.90;46.70;;;;;;5070998;28;20470;-47
2023/06/05 05:22:44;;;;;;;2.77;1.97;;;23.90;46.70;;;;;;5071402;28;20875;-47
2023/06/05 05:25:12;;;;;;;2.70;2.40;;;23.90;46.70;;;;;;5065381;28;20479;-46
2023/06/05 05:27:41;;;;;;;2.73;2.17;;;23.90;46.80;;;;;;5069224;28;20522;-47
2023/06/05 05:30:11;;;;;;;2.17;1.80;;;23.90;46.90;;;;;;5084751;28;20525;-47
2023/06/05 05:32:40;;;;;;;2.50;2.07;;;23.90;46.80;;;;;;5084224;28;20470;-47
2023/06/05 05:35:11;;;;;;;2.37;2.17;;;23.90;46.70;;;;;;5085781;28;20507;-48
2023/06/05 05:37:41;;;;;;;3.80;1.80;;;23.90;46.70;;;;;;5070267;28;20440;-46
2023/06/05 05:40:12;;;;;;;3.93;1.97;;;23.90;47.00;;;;;;5077831;28;21113;-46
2023/06/05 05:42:42;;;;;;;3.70;2.30;;;23.90;46.90;;;;;;5082643;28;20549;-46
2023/06/05 05:45:12;;;;;;;2.47;2.17;;;23.90;46.90;;;;;;5086080;28;20538;-47
2023/06/05 05:47:40;;;;;;;2.30;2.10;;;23.90;46.90;;;;;;5084098;28;20490;-47
2023/06/05 05:50:09;;;;;;;2.83;2.17;;;23.90;47.00;;;;;;5079382;28;20908;-47
2023/06/05 05:52:39;;;;;;;3.70;2.00;;;23.90;47.00;;;;;;5087966;28;20485;-47
2023/06/05 05:55:09;;;;;;;3.20;1.47;;;23.90;47.10;;;;;;5066805;28;20476;-47
2023/06/05 05:57:39;;;;;;;2.10;1.90;;;23.90;47.10;;;;;;5067103;28;20489;-48
2023/06/05 06:00:12;;;;;;;2.07;1.87;;;23.90;47.10;;;;;;5070464;28;21310;-48
2023/06/05 06:02:41;;;;;;;1.40;1.30;;;23.90;47.20;;;;;;5068706;28;20529;-48
2023/06/05 06:05:12;;;;;;;3.53;1.80;;;23.90;47.30;;;;;;5087051;28;20504;-47
2023/06/05 06:07:42;;;;;;;2.53;1.80;;;23.90;47.30;;;;;;5088864;28;20851;-48
2023/06/05 06:10:13;;;;;;;2.10;1.63;;;23.90;47.50;;;;;;5079456;28;20475;-44
2023/06/05 06:12:42;;;;;;;3.43;1.63;;;23.90;47.60;;;;;;5084049;28;20493;-48
2023/06/05 06:15:11;;;;;;;3.40;2.43;;;23.90;47.50;;;;;;5080785;28;20490;-48
2023/06/05 06:17:40;;;;;;;1.80;1.70;;;23.90;47.40;;;;;;5083311;28;20440;-47
2023/06/05 06:20:12;;;;;;;2.20;1.67;;;23.90;47.50;;;;;;5069709;28;20993;-47
2023/06/05 06:22:41;;;;;;;2.03;1.83;;;23.90;47.70;;;;;;5063929;28;20823;-47
2023/06/05 06:25:14;;;;;;;2.73;2.13;;;23.90;47.80;;;;;;5071200;28;20478;-48
2023/06/05 06:27:43;;;;;;;1.70;1.60;;;23.80;47.20;;;;;;5084325;28;20555;-47
2023/06/05 06:30:12;;;;;;;1.67;1.57;;;23.90;47.50;;;;;;5078370;28;20513;-47
2023/06/05 06:32:41;;;;;;;1.90;1.70;;;23.80;47.70;;;;;;5067471;28;20435;-47
2023/06/05 06:35:09;;;;;;;1.67;1.57;;;23.80;47.80;;;;;;5081099;28;20478;-47
2023/06/05 06:37:38;;;;;;;4.40;2.43;;;23.90;48.00;;;;;;5069557;28;20521;-45
2023/06/05 06:40:08;;;;;;;3.67;2.20;;;23.80;47.80;;;;;;5082363;28;20532;-47
2023/06/05 06:42:39;;;;;;;2.30;1.70;;;23.80;47.20;;;;;;5065521;28;20465;-47
2023/06/05 06:45:18;;;;;;;6.10;1.60;;;23.80;47.20;;;;;;5082119;28;20484;-48
2023/06/05 06:47:47;;;;;;;2.20;2.10;;;23.80;47.70;;;;;;5069164;28;20467;-47
2023/06/05 06:50:33;;;;;;;2.77;1.97;;;23.80;47.70;;;;;;5067109;28;20800;-47
2023/06/05 06:53:03;;;;;;;2.53;2.33;;;23.80;47.60;;;;;;5063047;28;20434;-46
2023/06/05 06:55:32;;;;;;;5.20;3.00;;;23.80;47.80;;;;;;5068143;28;20484;-47
2023/06/05 06:58:02;;;;;;;2.47;2.27;;;23.80;47.00;;;;;;5079431;28;20457;-48
2023/06/05 07:00:31;;;;;;;2.33;2.13;;;23.80;47.00;;;;;;5089750;28;20479;-48
2023/06/05 07:03:00;;;;;;;2.93;2.17;;;23.80;46.90;;;;;;5071609;28;20565;-46
2023/06/05 07:05:29;;;;;;;2.67;2.27;;;23.80;47.00;;;;;;5088560;28;20443;-47
2023/06/05 07:08:00;;;;;;;4.97;2.70;;;23.80;46.70;;;;;;5071310;28;20460;-48
2023/06/05 07:10:29;;;;;;;4.97;2.40;;;23.80;46.40;;;;;;5083388;28;20450;-47
2023/06/05 07:12:58;;;;;;;2.90;2.60;;;23.80;46.50;;;;;;5089697;28;20768;-48
2023/06/05 07:15:28;;;;;;;3.60;2.53;;;23.80;46.30;;;;;;5063189;28;20528;-47
2023/06/05 07:17:57;;;;;;;1.93;1.73;;;23.80;46.40;;;;;;5066611;28;20462;-45
2023/06/05 07:20:25;;;;;;;8.07;2.80;;;23.90;47.30;;;;;;5070807;28;20454;-46
2023/06/05 07:22:54;;;;;;;5.00;3.00;;;23.90;45.60;;;;;;5086551;28;20467;-47
2023/06/05 07:25:24;;;;;;;6.03;2.90;;;23.90;45.30;;;;;;5068118;28;20524;-45
2023/06/05 07:27:59;;;;;;;4.57;2.37;;;23.90;45.40;;;;;;5083846;28;20486;-45
2023/06/05 07:30:29;;;;;;;3.50;2.40;;;23.90;46.40;;;;;;5073080;28;20430;-49
2023/06/05 07:32:58;;;;;;;4.47;3.23;;;23.90;46.10;;;;;;5067726;28;20541;-46
2023/06/05 07:35:27;;;;;;;2.43;2.23;;;23.90;45.90;;;;;;5066410;28;20465;-48
2023/06/05 07:37:58;;;;;;;3.10;1.97;;;23.80;46.20;;;;;;5093494;28;20531;-47
2023/06/05 07:40:27;;;;;;;2.70;2.00;;;23.80;46.30;;;;;;5070119;28;20519;-47
2023/06/05 07:42:56;;;;;;;3.40;2.13;;;23.80;46.70;;;;;;5085483;28;20526;-47
2023/06/05 07:45:24;;;;;;;2.73;2.40;;;23.80;46.70;;;;;;5074471;28;20451;-46
2023/06/05 07:47:58;;;;;;;2.77;1.87;;;23.80;46.80;;;;;;5082234;28;20470;-47
2023/06/05 07:50:28;;;;;;;2.37;2.17;;;23.80;47.00;;;;;;5072366;28;20485;-44
2023/06/05 07:52:56;;;;;;;3.63;2.27;;;23.80;47.00;;;;;;5084119;28;20460;-47
2023/06/05 07:55:25;;;;;;;2.93;2.07;;;23.80;47.10;;;;;;5082244;28;20447;-45
2023/06/05 07:57:55;;;;;;;4.17;2.40;;;23.80;47.20;;;;;;5072349;28;20870;-47
2023/06/05 08:00:25;;;;;;;2.20;2.00;;;23.80;47.30;;;;;;5091630;28;20439;-47
2023/06/05 08:02:54;;;;;;;2.80;1.90;;;23.80;47.30;;;;;;5072200;28;20449;-48
2023/06/05 08:05:24;;;;;;;3.07;1.93;;;23.80;47.60;;;;;;5072781;28;20478;-47
2023/06/05 08:07:53;;;;;;;2.53;1.70;;;23.80;47.50;;;;;;5089581;28;20459;-46
2023/06/05 08:10:21;;;;;;;3.57;2.00;;;23.80;47.60;;;;;;5070253;28;21039;-46
2023/06/05 08:12:50;;;;;;;4.77;2.00;;;23.80;47.70;;;;;;5081055;28;20600;-48
2023/06/05 08:15:19;;;;;;;3.53;2.00;;;23.70;47.50;;;;;;5090671;28;20459;-47
2023/06/05 08:17:48;;;;;;;2.47;1.50;;;23.80;47.60;;;;;;5080483;28;20895;-46
2023/06/05 08:20:16;;;;;;;2.73;1.57;;;23.80;47.80;;;;;;5085186;28;20514;-45
2023/06/05 08:22:47;;;;;;;3.10;2.33;;;23.80;47.80;;;;;;5087294;28;20454;-46
2023/06/05 08:25:15;;;;;;;1.80;1.70;;;23.80;47.70;;;;;;5076837;28;20477;-47
2023/06/05 08:27:47;;;;;;;2.60;2.03;;;23.80;47.80;;;;;;5090635;28;20903;-47
2023/06/05 08:30:17;;;;;;;1.70;1.60;;;23.80;47.80;;;;;;5085575;28;21046;-44
2023/06/05 08:32:45;;;;;;;3.80;2.03;;;23.80;47.80;;;;;;5068462;28;20515;-47
2023/06/05 08:35:14;;;;;;;2.03;1.70;;;23.70;47.80;;;;;;5089153;28;20448;-46
2023/06/05 08:37:43;;;;;;;3.23;1.83;;;23.70;47.70;;;;;;5073222;28;20465;-45
2023/06/05 08:40:14;;;;;;;3.60;2.47;;;23.70;47.80;;;;;;5088240;28;20524;-46
2023/06/05 08:42:43;;;;;;;2.30;2.10;;;23.80;47.80;;;;;;5089785;28;20436;-48
2023/06/05 08:45:12;;;;;;;2.90;1.80;;;23.70;47.70;;;;;;5088823;28;20557;-47
2023/06/05 08:47:42;;;;;;;3.87;2.37;;;23.80;49.20;;;;;;5079164;28;20447;-46
2023/06/05 08:50:11;;;;;;;2.10;1.90;;;23.80;47.90;;;;;;5084235;28;20530;-47
2023/06/05 08:52:42;;;;;;;2.57;2.20;;;23.80;48.00;;;;;;5070204;28;20960;-44
2023/06/05 08:55:13;;;;;;;1.90;1.50;;;23.80;47.70;;;;;;5083872;28;20480;-47
2023/06/05 08:57:42;;;;;;;2.30;1.70;;;23.80;48.00;;;;;;5068009;28;20779;-44
2023/06/05 09:00:14;;;;;;;2.57;1.90;;;23.80;48.00;;;;;;5076155;28;20509;-48
2023/06/05 09:02:46;;;;;;;2.60;1.87;;;23.80;48.00;;;;;;5066761;28;20443;-46
2023/06/05 09:05:16;;;;;;;3.13;1.60;;;23.80;48.00;;;;;;5068378;28;20626;-48
2023/06/05 09:07:45;;;;;;;2.30;1.87;;;23.80;47.90;;;;;;5063926;28;20493;-45
2023/06/05 09:10:26;;;;;;;2.37;1.43;;;23.80;47.80;;;;;;5086460;28;20611;-48
2023/06/05 09:12:56;;;;;;;2.27;2.00;;;23.80;47.60;;;;;;5085763;28;20431;-47
2023/06/05 09:15:27;;;;;;;2.37;2.17;;;23.80;47.70;;;;;;5066438;28;20444;-46
2023/06/05 09:18:10;;;;;;;3.50;1.60;;;23.80;47.70;;;;;;5065552;28;20456;-47
2023/06/05 09:20:40;;;;;;;1.80;1.67;;;23.80;47.70;;;;;;5072334;28;20559;-47
2023/06/05 09:23:30;;;;;;;6.50;1.87;;;23.80;47.90;;;;;;5087949;28;20435;-46
2023/06/05 09:26:03;;;;;;;2.10;1.90;;;23.70;47.90;;;;;;5061458;28;20439;-47
2023/06/05 09:28:32;;;;;;;2.13;1.93;;;23.80;47.80;;;;;;5076142;28;20479;-48
2023/06/05 09:31:02;;;;;;;2.47;1.80;;;23.80;47.60;;;;;;5070313;28;20527;-47
2023/06/05 09:33:33;;;;;;;2.60;1.67;;;23.80;47.90;;;;;;5088224;28;20539;-47
2023/06/05 09:36:06;;;;;;;2.60;1.80;;;23.80;48.00;;;;;;5066609;28;20794;-47
2023/06/05 09:38:37;;;;;;;2.90;2.17;;;23.80;48.10;;;;;;5074035;28;20734;-47
2023/06/05 09:41:08;;;;;;;4.87;2.50;;;23.80;48.00;;;;;;5086741;28;20482;-48
2023/06/05 09:43:38;;;;;;;3.33;2.57;;;23.90;42.20;;;;;;5069960;28;20870;-46
2023/06/05 09:46:11;;;;;;;4.73;2.77;;;23.70;42.20;;;;;;5065779;28;20450;-45
2023/06/05 09:48:43;;;;;;;3.70;2.60;;;23.60;43.10;;;;;;5077254;28;20475;-47
2023/06/05 09:51:14;;;;;;;6.30;2.73;;;23.60;43.70;;;;;;5071603;28;20961;-47
2023/06/05 09:53:44;;;;;;;4.43;2.73;;;23.60;43.90;;;;;;5067373;28;20445;-46
2023/06/05 09:56:16;;;;;;;2.37;2.17;;;23.60;43.40;;;;;;5087262;28;20475;-46
2023/06/05 09:58:46;;;;;;;5.60;2.30;;;23.60;44.30;;;;;;5086751;28;20570;-46
2023/06/05 10:01:19;;;;;;;2.67;2.00;;;23.60;44.30;;;;;;5077082;28;20452;-47
2023/06/05 10:03:58;;;;;;;2.77;2.57;;;23.70;44.50;;;;;;5083648;28;20439;-47
2023/06/05 10:06:28;;;;;;;4.07;2.30;;;23.70;44.60;;;;;;5068930;28;20926;-46
2023/06/05 10:08:57;;;;;;;4.50;2.50;;;23.70;44.40;;;;;;5078513;28;20472;-46
2023/06/05 10:11:28;;;;;;;3.73;2.17;;;23.70;44.60;;;;;;5076523;28;20708;-46
2023/06/05 10:13:59;;;;;;;5.20;2.27;;;23.70;44.90;;;;;;5061601;28;20441;-48
2023/06/05 10:16:29;;;;;;;2.77;2.50;;;23.70;45.00;;;;;;5064150;28;20442;-45
2023/06/05 10:19:00;;;;;;;7.80;2.57;;;23.70;45.20;;;;;;5061788;28;20490;-48
2023/06/05 10:21:29;;;;;;;4.07;2.30;;;23.70;45.30;;;;;;5074081;28;20505;-48
2023/06/05 10:24:02;;;;;;;4.00;2.33;;;23.70;45.30;;;;;;5068846;28;20451;-47
2023/06/05 10:27:03;;;;;;;3.87;2.10;;;23.70;45.60;;;;;;5064685;28;20445;-47
2023/06/05 10:29:45;;;;;;;2.77;2.30;;;23.80;45.90;;;;;;5073572;28;20484;-45
2023/06/05 10:32:21;;;;;;;2.53;2.00;;;23.70;45.90;;;;;;5058247;28;20871;-47
2023/06/05 10:34:57;;;;;;;6.90;2.10;;;23.80;45.40;;;;;;5061094;28;20505;-46
2023/06/05 10:37:42;;;;;;;2.03;1.83;;;23.70;45.00;;;;;;5074784;28;20979;-46
2023/06/05 10:40:11;;;;;;;2.93;2.20;;;23.80;45.80;;;;;;5064057;28;20478;-47
2023/06/05 10:42:41;;;;;;;2.87;1.90;;;23.70;46.00;;;;;;5067173;28;20442;-47
2023/06/05 10:45:10;;;;;;;3.33;2.23;;;23.80;46.20;;;;;;5079346;28;20996;-45
2023/06/05 10:47:54;;;;;;;2.40;2.17;;;23.80;46.90;;;;;;5084019;28;20447;-46
2023/06/05 10:50:28;;;;;;;2.43;2.00;;;23.80;46.30;;;;;;5064743;28;20473;-45
2023/06/05 10:52:57;;;;;;;2.43;2.00;;;23.80;46.40;;;;;;5074264;28;20443;-47
2023/06/05 10:55:27;;;;;;;2.07;1.87;;;23.80;46.20;;;;;;5074319;28;20466;-46
2023/06/05 10:58:09;;;;;;;2.57;1.70;;;23.80;46.20;;;;;;5073026;28;20460;-46
2023/06/05 11:01:17;;;;;;;3.10;2.27;;;23.80;46.40;;;;;;5079547;28;20452;-45
2023/06/05 11:03:57;;;;;;;3.00;1.83;;;23.80;45.50;;;;;;5070972;28;20443;-45
2023/06/05 11:06:26;;;;;;;1.70;1.60;;;23.80;45.60;;;;;;5068900;28;20482;-45
2023/06/05 11:09:08;;;;;;;2.33;1.97;;;23.80;46.10;;;;;;5086123;28;21067;-48
2023/06/05 11:11:58;;;;;;;2.60;2.03;;;23.80;46.10;;;;;;5075275;28;20518;-47
2023/06/05 11:14:45;;;;;;;1.93;1.73;;;23.80;46.20;;;;;;5046429;28;20575;-47
2023/06/05 11:17:30;;;;;;;2.50;1.97;;;23.80;46.00;;;;;;5084809;28;21049;-47
2023/06/05 11:19:59;;;;;;;3.00;2.20;;;23.80;46.10;;;;;;5065626;28;20848;-48
2023/06/05 11:22:27;;;;;;;2.17;1.97;;;23.80;46.10;;;;;;5070141;28;20483;-47
2023/06/05 11:25:27;;;;;;;2.43;1.80;;;23.80;46.20;;;;;;5085524;28;20466;-47
2023/06/05 11:27:58;;;;;;;2.13;1.83;;;23.80;46.10;;;;;;5081406;28;20519;-46
2023/06/05 11:30:32;;;;;;;2.30;1.73;;;23.80;46.20;;;;;;5068813;28;20960;-45
2023/06/05 11:33:20;;;;;;;3.50;2.03;;;23.80;46.30;;;;;;5084753;28;20427;-47
2023/06/05 11:35:52;;;;;;;2.47;2.20;;;23.80;46.20;;;;;;5079526;28;20863;-45
2023/06/05 11:38:22;;;;;;;2.60;1.80;;;23.90;46.40;;;;;;5078024;28;20515;-45
2023/06/05 11:40:53;;;;;;;2.03;1.83;;;23.90;46.60;;;;;;5077905;28;20435;-47
2023/06/05 11:43:22;;;;;;;2.83;2.10;;;23.90;46.90;;;;;;5089172;28;20438;-45
2023/06/05 11:45:53;;;;;;;2.60;2.17;;;23.90;46.90;;;;;;5076423;28;20472;-47
2023/06/05 11:48:25;;;;;;;1.80;1.60;;;23.90;47.00;;;;;;5074494;28;20492;-44
2023/06/05 11:50:57;;;;;;;2.47;2.13;;;23.90;47.20;;;;;;5090941;28;20945;-47
2023/06/05 11:53:26;;;;;;;3.17;2.10;;;23.90;47.20;;;;;;5090664;28;20474;-49
2023/06/05 11:56:06;;;;;;;2.40;2.10;;;23.90;46.10;;;;;;5074314;28;20460;-46
2023/06/05 11:58:37;;;;;;;2.80;2.30;;;23.90;46.70;;;;;;5071322;28;20459;-47
2023/06/05 12:01:09;;;;;;;2.50;2.07;;;23.90;46.70;;;;;;5085563;28;20452;-46
2023/06/05 12:03:38;;;;;;;1.60;1.50;;;23.90;47.00;;;;;;5061670;28;20456;-46
2023/06/05 12:06:07;;;;;;;4.50;1.87;;;23.90;47.20;;;;;;5088200;28;20455;-47
2023/06/05 12:08:37;;;;;;;2.37;2.17;;;23.90;48.10;;;;;;5065624;28;20867;-47
2023/06/05 12:11:20;;;;;;;1.73;1.63;;;23.90;46.60;;;;;;5064686;28;20448;-47
2023/06/05 12:13:51;;;;;;;2.30;1.80;;;24.00;46.90;;;;;;5077156;28;20895;-47
2023/06/05 12:16:30;;;;;;;3.00;1.80;;;23.90;46.90;;;;;;5069468;28;20812;-47
2023/06/05 12:18:59;;;;;;;2.33;2.13;;;23.90;48.20;;;;;;5085296;28;20562;-48
2023/06/05 12:21:43;;;;;;;4.80;2.10;;;24.00;46.60;;;;;;5065817;28;20529;-46
2023/06/05 12:24:12;;;;;;;1.77;1.67;;;23.90;46.00;;;;;;5085452;28;20471;-47
2023/06/05 12:26:54;;;;;;;2.40;2.20;;;24.00;46.10;;;;;;5085807;28;20456;-48
2023/06/05 12:29:24;;;;;;;2.43;2.00;;;24.00;46.20;;;;;;5064411;28;20995;-48
2023/06/05 12:31:56;;;;;;;2.10;1.90;;;24.00;47.70;;;;;;5086987;28;20824;-45
2023/06/05 12:34:41;;;;;;;2.83;1.93;;;24.00;46.60;;;;;;5077330;28;20521;-47
2023/06/05 12:37:29;;;;;;;2.33;2.13;;;24.00;46.70;;;;;;5077978;28;20463;-45
2023/06/05 12:40:05;;;;;;;2.63;2.43;;;24.00;46.70;;;;;;5067285;28;20473;-47
2023/06/05 12:42:36;;;;;;;3.73;1.77;;;24.00;48.00;;;;;;5075176;28;20449;-45
2023/06/05 12:45:06;;;;;;;2.27;2.07;;;24.00;46.90;;;;;;5083062;28;20479;-47
2023/06/05 12:47:36;;;;;;;2.10;1.90;;;24.00;47.00;;;;;;5071469;28;20467;-46
2023/06/05 12:50:07;;;;;;;2.67;1.73;;;24.00;47.00;;;;;;5088601;28;20502;-47
2023/06/05 12:52:35;;;;;;;2.03;1.83;;;24.10;46.80;;;;;;5088857;28;20957;-46
2023/06/05 12:55:05;;;;;;;2.57;2.37;;;24.10;46.70;;;;;;5087815;28;20478;-45
2023/06/05 12:57:35;;;;;;;2.43;1.90;;;24.10;46.50;;;;;;5088614;28;20475;-47
2023/06/05 13:00:12;;;;;;;2.50;2.30;;;24.10;45.80;;;;;;5089303;28;20597;-46
2023/06/05 13:02:45;;;;;;;2.47;1.80;;;24.10;45.60;;;;;;5087767;28;20444;-46
2023/06/05 13:05:15;;;;;;;2.27;2.07;;;24.10;46.00;;;;;;5076837;28;20463;-47
2023/06/05 13:07:44;;;;;;;2.33;2.13;;;24.10;46.60;;;;;;5071982;28;20536;-46
2023/06/05 13:10:13;;;;;;;2.13;2.03;;;24.10;46.30;;;;;;5086048;28;20478;-46